createdAt,value
2019-02-17T00:02:05.065Z,13.47
2019-02-17T00:04:34.593Z,12.57
2019-02-17T00:07:04.119Z,12.43
2019-02-17T00:09:33.658Z,13.70
2019-02-17T00:12:03.167Z,12.17
2019-02-17T00:14:32.696Z,12.57
2019-02-17T00:17:02.217Z,13.00
2019-02-17T00:19:31.752Z,12.97
2019-02-17T00:22:01.297Z,13.87
2019-02-17T00:24:30.813Z,12.70
2019-02-17T00:27:00.345Z,12.83
2019-02-17T00:29:29.876Z,13.37
2019-02-17T00:31:59.404Z,12.80
2019-02-17T00:34:28.919Z,11.80
2019-02-17T00:36:58.508Z,12.40
2019-02-17T00:39:28.039Z,12.57
2019-02-17T00:41:57.556Z,11.93
2019-02-17T00:44:27.089Z,12.60
2019-02-17T00:46:56.613Z,13.90
2019-02-17T00:49:26.817Z,12.37
2019-02-17T00:51:56.343Z,12.40
2019-02-17T00:54:25.861Z,12.53
2019-02-17T00:56:55.656Z,12.40
2019-02-17T00:59:25.165Z,13.50
2019-02-17T01:01:54.735Z,11.90
2019-02-17T01:04:24.245Z,13.50
2019-02-17T01:06:53.865Z,11.80
2019-02-17T01:09:23.391Z,13.27
2019-02-17T01:11:52.906Z,11.90
2019-02-17T01:14:22.450Z,12.40
2019-02-17T01:16:52.297Z,10.70
2019-02-17T01:19:21.900Z,12.27
2019-02-17T01:21:51.425Z,11.73
2019-02-17T01:24:20.957Z,11.13
2019-02-17T01:26:50.464Z,11.73
2019-02-17T01:29:20.903Z,11.67
2019-02-17T01:31:50.506Z,12.30
2019-02-17T01:34:20.059Z,11.40
2019-02-17T01:36:49.666Z,11.50
2019-02-17T01:39:19.171Z,11.27
2019-02-17T01:41:48.940Z,10.23
2019-02-17T01:44:18.422Z,9.50
2019-02-17T01:46:48.007Z,10.20
2019-02-17T01:49:17.536Z,10.97
2019-02-17T01:51:47.059Z,10.87
2019-02-17T01:54:16.606Z,11.13
2019-02-17T01:56:46.118Z,9.90
2019-02-17T01:59:15.656Z,10.90
2019-02-17T02:01:45.170Z,10.50
2019-02-17T02:04:14.684Z,11.47
2019-02-17T02:06:44.212Z,10.70
2019-02-17T02:09:13.727Z,11.10
2019-02-17T02:11:43.565Z,10.83
2019-02-17T02:14:13.079Z,10.60
2019-02-17T02:16:42.722Z,11.40
2019-02-17T02:19:12.239Z,11.90
2019-02-17T02:21:41.757Z,11.00
2019-02-17T02:24:11.603Z,11.30
2019-02-17T02:26:41.124Z,10.77
2019-02-17T02:29:10.653Z,11.50
2019-02-17T02:31:40.165Z,9.73
2019-02-17T02:34:10.031Z,10.70
2019-02-17T02:36:39.541Z,10.07
2019-02-17T02:39:09.057Z,10.30
2019-02-17T02:41:38.593Z,10.33
2019-02-17T02:44:08.096Z,10.30
2019-02-17T02:46:37.622Z,9.70
2019-02-17T02:49:07.143Z,9.80
2019-02-17T02:51:36.693Z,11.30
2019-02-17T02:54:06.205Z,10.37
2019-02-17T02:56:35.721Z,10.10
2019-02-17T02:59:05.244Z,11.40
2019-02-17T03:01:34.758Z,9.90
2019-02-17T03:04:04.286Z,9.90
2019-02-17T03:06:35.451Z,10.33
2019-02-17T03:09:06.314Z,10.50
2019-02-17T03:11:35.828Z,11.00
2019-02-17T03:14:05.352Z,11.03
2019-02-17T03:16:34.891Z,10.40
2019-02-17T03:19:04.415Z,10.07
2019-02-17T03:21:33.932Z,10.53
2019-02-17T03:24:03.458Z,10.33
2019-02-17T03:26:32.982Z,10.63
2019-02-17T03:29:02.500Z,10.30
2019-02-17T03:31:32.038Z,9.60
2019-02-17T03:34:01.544Z,10.20
2019-02-17T03:36:31.057Z,10.10
2019-02-17T03:39:00.596Z,10.73
2019-02-17T03:41:30.376Z,10.50
2019-02-17T03:43:59.902Z,10.30
2019-02-17T03:46:29.417Z,9.90
2019-02-17T03:48:58.933Z,11.17
2019-02-17T03:51:28.798Z,10.33
2019-02-17T03:53:58.314Z,10.10
2019-02-17T03:56:27.861Z,9.43
2019-02-17T03:58:57.377Z,10.27
2019-02-17T04:01:26.902Z,10.13
2019-02-17T04:03:56.438Z,10.10
2019-02-17T04:06:25.959Z,10.60
2019-02-17T04:08:55.489Z,9.90
2019-02-17T04:11:25.009Z,10.87
2019-02-17T04:13:54.555Z,10.30
2019-02-17T04:16:24.088Z,10.70
2019-02-17T04:18:53.609Z,11.37
2019-02-17T04:21:24.725Z,11.50
2019-02-17T04:23:54.243Z,10.50
2019-02-17T04:26:23.876Z,10.33
2019-02-17T04:28:53.459Z,10.67
2019-02-17T04:31:22.989Z,10.00
2019-02-17T04:33:52.539Z,10.80
2019-02-17T04:36:22.084Z,9.70
2019-02-17T04:38:51.583Z,9.70
2019-02-17T04:41:21.201Z,10.00
2019-02-17T04:43:50.708Z,10.00
2019-02-17T04:46:21.528Z,11.07
2019-02-17T04:48:51.130Z,10.47
2019-02-17T04:51:20.642Z,10.40
2019-02-17T04:53:50.168Z,10.50
2019-02-17T04:56:19.684Z,11.17
2019-02-17T04:58:49.219Z,10.10
2019-02-17T05:01:18.741Z,9.83
2019-02-17T05:03:48.289Z,9.10
2019-02-17T05:06:17.798Z,9.97
2019-02-17T05:08:47.327Z,11.30
2019-02-17T05:11:16.867Z,10.63
2019-02-17T05:13:46.383Z,9.50
2019-02-17T05:16:15.910Z,9.77
2019-02-17T05:18:45.421Z,9.90
2019-02-17T05:21:14.952Z,9.03
2019-02-17T05:23:44.475Z,9.70
2019-02-17T05:26:13.990Z,9.07
2019-02-17T05:28:43.524Z,9.90
2019-02-17T05:31:13.025Z,9.33
2019-02-17T05:33:42.540Z,10.90
2019-02-17T05:36:12.064Z,9.93
2019-02-17T05:38:41.606Z,9.47
2019-02-17T05:41:11.132Z,10.17
2019-02-17T05:43:40.647Z,9.30
2019-02-17T05:46:10.161Z,10.30
2019-02-17T05:48:39.694Z,10.20
2019-02-17T05:51:09.214Z,9.50
2019-02-17T05:53:38.745Z,11.00
2019-02-17T05:56:08.291Z,9.27
2019-02-17T05:58:37.826Z,9.87
2019-02-17T06:01:07.513Z,11.17
2019-02-17T06:03:37.039Z,12.13
2019-02-17T06:06:06.578Z,10.13
2019-02-17T06:08:36.195Z,9.53
2019-02-17T06:11:05.714Z,9.83
2019-02-17T06:13:35.249Z,10.60
2019-02-17T06:16:04.768Z,10.43
2019-02-17T06:18:34.291Z,12.97
2019-02-17T06:21:03.836Z,9.93
2019-02-17T06:23:33.354Z,11.60
2019-02-17T06:26:02.980Z,11.13
2019-02-17T06:28:32.509Z,10.30
2019-02-17T06:31:02.022Z,10.20
2019-02-17T06:33:31.575Z,10.50
2019-02-17T06:36:01.201Z,10.20
2019-02-17T06:38:30.730Z,9.70
2019-02-17T06:41:00.246Z,9.33
2019-02-17T06:43:29.783Z,9.80
2019-02-17T06:45:59.635Z,10.00
2019-02-17T06:48:29.143Z,10.90
2019-02-17T06:50:58.700Z,9.57
2019-02-17T06:53:28.212Z,9.57
2019-02-17T06:55:59.399Z,10.60
2019-02-17T06:58:30.592Z,10.43
2019-02-17T07:01:01.974Z,9.00
2019-02-17T07:03:31.540Z,10.30
2019-02-17T07:06:05.674Z,10.23
2019-02-17T07:08:35.183Z,9.80
2019-02-17T07:11:04.732Z,10.40
2019-02-17T07:13:34.232Z,9.80
2019-02-17T07:16:03.750Z,9.40
2019-02-17T07:18:33.616Z,9.87
2019-02-17T07:21:03.145Z,10.20
2019-02-17T07:23:32.696Z,11.60
2019-02-17T07:26:02.211Z,9.80
2019-02-17T07:28:31.737Z,9.63
2019-02-17T07:31:01.258Z,9.60
2019-02-17T07:33:30.818Z,11.20
2019-02-17T07:36:00.345Z,10.80
2019-02-17T07:38:29.869Z,10.30
2019-02-17T07:40:59.423Z,10.80
2019-02-17T07:43:28.951Z,11.20
2019-02-17T07:45:58.491Z,12.00
2019-02-17T07:48:28.311Z,10.90
2019-02-17T07:50:57.847Z,12.20
2019-02-17T07:53:27.370Z,13.70
2019-02-17T07:55:56.995Z,11.87
2019-02-17T07:58:26.524Z,12.57
2019-02-17T08:00:56.121Z,11.80
2019-02-17T08:03:25.674Z,12.07
2019-02-17T08:05:55.269Z,13.33
2019-02-17T08:08:24.811Z,14.50
2019-02-17T08:11:03.495Z,14.63
2019-02-17T08:13:25.601Z,12.63
2019-02-17T08:15:55.112Z,13.00
2019-02-17T08:18:24.671Z,12.67
2019-02-17T08:20:54.195Z,13.47
2019-02-17T08:23:23.875Z,13.80
2019-02-17T08:25:53.391Z,13.27
2019-02-17T08:28:22.951Z,13.10
2019-02-17T08:30:52.488Z,13.90
2019-02-17T08:33:22.021Z,14.30
2019-02-17T08:35:51.564Z,14.70
2019-02-17T08:38:21.209Z,14.20
2019-02-17T08:40:50.714Z,22.20
2019-02-17T08:43:20.257Z,13.77
2019-02-17T08:45:49.956Z,13.60
2019-02-17T08:48:19.565Z,13.67
2019-02-17T08:50:49.082Z,14.20
2019-02-17T08:53:18.633Z,14.57
2019-02-17T08:55:48.234Z,13.47
2019-02-17T08:58:17.860Z,15.03
2019-02-17T09:00:47.370Z,23.60
2019-02-17T09:03:16.894Z,19.03
2019-02-17T09:05:46.422Z,14.10
2019-02-17T09:08:16.080Z,14.30
2019-02-17T09:10:45.656Z,14.23
2019-02-17T09:13:15.164Z,13.77
2019-02-17T09:15:44.683Z,14.93
2019-02-17T09:18:14.224Z,16.00
2019-02-17T09:20:43.930Z,14.17
2019-02-17T09:23:13.456Z,13.80
2019-02-17T09:25:42.994Z,14.20
2019-02-17T09:28:12.515Z,13.03
2019-02-17T09:30:42.033Z,14.20
2019-02-17T09:33:11.560Z,15.07
2019-02-17T09:35:41.109Z,16.27
2019-02-17T09:38:10.644Z,16.47
2019-02-17T09:40:40.182Z,15.43
2019-02-17T09:43:09.869Z,16.70
2019-02-17T09:45:39.420Z,15.37
2019-02-17T09:48:08.992Z,15.47
2019-02-17T09:50:38.604Z,15.10
2019-02-17T09:53:08.139Z,17.87
2019-02-17T09:55:39.244Z,14.83
2019-02-17T09:58:08.789Z,15.60
2019-02-17T10:00:38.297Z,15.47
2019-02-17T10:03:07.837Z,15.30
2019-02-17T10:05:37.383Z,17.40
2019-02-17T10:08:06.925Z,19.20
2019-02-17T10:10:36.523Z,16.73
2019-02-17T10:13:06.069Z,19.03
2019-02-17T10:15:35.610Z,16.67
2019-02-17T10:18:05.150Z,15.90
2019-02-17T10:20:34.671Z,17.77
2019-02-17T10:23:04.189Z,17.97
2019-02-17T10:25:33.721Z,17.50
2019-02-17T10:28:03.234Z,17.80
2019-02-17T10:30:32.869Z,17.83
2019-02-17T10:33:02.373Z,18.70
2019-02-17T10:35:31.895Z,17.87
2019-02-17T10:38:01.411Z,20.27
2019-02-17T10:40:31.092Z,18.37
2019-02-17T10:43:00.604Z,18.80
2019-02-17T10:45:30.097Z,18.57
2019-02-17T10:47:59.619Z,20.00
2019-02-17T10:50:29.190Z,21.53
2019-02-17T10:52:58.734Z,21.30
2019-02-17T10:55:28.244Z,20.50
2019-02-17T10:57:57.786Z,17.90
2019-02-17T11:00:28.972Z,19.43
2019-02-17T11:03:08.876Z,18.00
2019-02-17T11:05:38.394Z,19.77
2019-02-17T11:08:07.991Z,19.60
2019-02-17T11:10:37.575Z,18.80
2019-02-17T11:13:07.120Z,20.03
2019-02-17T11:15:36.744Z,21.20
2019-02-17T11:18:06.269Z,19.70
2019-02-17T11:20:35.888Z,19.70
2019-02-17T11:23:05.805Z,20.87
2019-02-17T11:25:35.464Z,20.43
2019-02-17T11:28:04.994Z,19.27
2019-02-17T11:30:34.578Z,20.27
2019-02-17T11:33:04.341Z,20.30
2019-02-17T11:35:33.854Z,23.03
2019-02-17T11:38:03.380Z,20.17
2019-02-17T11:40:32.899Z,19.13
2019-02-17T11:43:02.450Z,19.00
2019-02-17T11:45:32.196Z,19.20
2019-02-17T11:48:01.726Z,19.33
2019-02-17T11:50:31.250Z,18.87
2019-02-17T11:53:00.766Z,20.10
2019-02-17T11:55:30.322Z,20.20
2019-02-17T11:57:59.839Z,19.50
2019-02-17T12:00:29.376Z,19.83
2019-02-17T12:03:07.581Z,20.73
2019-02-17T12:05:30.141Z,19.60
2019-02-17T12:07:59.665Z,18.53
2019-02-17T12:10:29.307Z,20.93
2019-02-17T12:12:58.844Z,20.40
2019-02-17T12:15:28.362Z,20.27
2019-02-17T12:17:59.297Z,20.57
2019-02-17T12:20:40.854Z,20.90
2019-02-17T12:23:23.895Z,20.53
2019-02-17T12:25:57.756Z,21.30
2019-02-17T12:28:34.626Z,19.10
2019-02-17T12:31:04.209Z,19.70
2019-02-17T12:33:33.738Z,20.30
2019-02-17T12:36:03.274Z,20.30
2019-02-17T12:38:33.070Z,19.00
2019-02-17T12:41:02.587Z,19.73
2019-02-17T12:43:32.111Z,20.70
2019-02-17T12:46:01.638Z,22.37
2019-02-17T12:48:31.154Z,20.40
2019-02-17T12:51:00.852Z,20.83
2019-02-17T12:53:30.369Z,20.10
2019-02-17T12:55:59.884Z,21.63
2019-02-17T12:58:30.308Z,20.37
2019-02-17T13:01:00.078Z,20.70
2019-02-17T13:03:29.606Z,20.47
2019-02-17T13:05:59.120Z,20.57
2019-02-17T13:08:28.655Z,21.77
2019-02-17T13:10:58.164Z,19.73
2019-02-17T13:13:27.701Z,20.10
2019-02-17T13:15:57.220Z,22.40
2019-02-17T13:18:26.738Z,21.47
2019-02-17T13:20:56.293Z,21.63
2019-02-17T13:23:25.807Z,21.53
2019-02-17T13:25:55.342Z,22.10
2019-02-17T13:28:24.853Z,22.20
2019-02-17T13:30:54.388Z,21.43
2019-02-17T13:33:23.894Z,21.37
2019-02-17T13:35:53.535Z,20.80
2019-02-17T13:38:23.057Z,21.43
2019-02-17T13:40:52.578Z,21.93
2019-02-17T13:43:22.134Z,21.63
2019-02-17T13:45:51.651Z,22.00
2019-02-17T13:48:21.617Z,20.27
2019-02-17T13:50:51.129Z,22.13
2019-02-17T13:53:20.644Z,20.90
2019-02-17T13:55:50.169Z,21.70
2019-02-17T13:58:19.686Z,23.60
2019-02-17T14:00:49.231Z,22.20
2019-02-17T14:03:18.760Z,21.13
2019-02-17T14:05:48.280Z,20.63
2019-02-17T14:08:17.806Z,21.47
2019-02-17T14:10:47.320Z,20.67
2019-02-17T14:13:16.863Z,22.47
2019-02-17T14:15:46.384Z,21.07
2019-02-17T14:18:15.913Z,21.83
2019-02-17T14:20:45.433Z,22.03
2019-02-17T14:23:14.977Z,21.90
2019-02-17T14:25:44.506Z,23.90
2019-02-17T14:28:14.025Z,24.80
2019-02-17T14:30:43.560Z,25.20
2019-02-17T14:33:13.084Z,23.40
2019-02-17T14:35:42.615Z,23.30
2019-02-17T14:38:12.140Z,23.30
2019-02-17T14:40:41.656Z,24.00
2019-02-17T14:43:11.190Z,24.43
2019-02-17T14:45:41.023Z,24.90
2019-02-17T14:48:11.425Z,22.70
2019-02-17T14:50:41.053Z,22.97
2019-02-17T14:53:10.596Z,22.87
2019-02-17T14:55:40.120Z,23.30
2019-02-17T14:58:09.646Z,21.20
2019-02-17T15:00:39.160Z,22.37
2019-02-17T15:03:08.687Z,21.13
2019-02-17T15:05:38.224Z,21.90
2019-02-17T15:08:07.764Z,22.13
2019-02-17T15:10:37.301Z,22.40
2019-02-17T15:13:06.823Z,21.87
2019-02-17T15:15:36.346Z,24.07
2019-02-17T15:18:06.001Z,20.90
2019-02-17T15:20:35.543Z,22.40
2019-02-17T15:23:05.288Z,21.93
2019-02-17T15:25:34.871Z,22.07
2019-02-17T15:28:04.417Z,22.30
2019-02-17T15:30:33.915Z,23.53
2019-02-17T15:33:04.391Z,24.60
2019-02-17T15:35:35.052Z,23.10
2019-02-17T15:38:04.706Z,27.50
2019-02-17T15:40:34.226Z,25.60
2019-02-17T15:43:03.761Z,25.27
2019-02-17T15:45:33.276Z,24.50
2019-02-17T15:48:02.805Z,25.47
2019-02-17T15:50:32.322Z,23.83
2019-02-17T15:53:01.841Z,23.80
2019-02-17T15:55:31.378Z,25.80
2019-02-17T15:58:00.895Z,24.97
2019-02-17T16:00:30.440Z,25.07
2019-02-17T16:02:59.952Z,25.67
2019-02-17T16:05:29.641Z,23.60
2019-02-17T16:07:59.148Z,26.27
2019-02-17T16:10:28.663Z,24.17
2019-02-17T16:12:58.198Z,25.30
2019-02-17T16:15:28.195Z,24.97
2019-02-17T16:17:57.731Z,25.20
2019-02-17T16:20:27.240Z,30.53
2019-02-17T16:22:56.775Z,27.50
2019-02-17T16:25:26.292Z,25.10
2019-02-17T16:27:55.816Z,33.63
2019-02-17T16:30:25.714Z,37.17
2019-02-17T16:32:55.230Z,32.97
2019-02-17T16:35:24.775Z,28.97
2019-02-17T16:37:54.281Z,27.93
2019-02-17T16:40:23.820Z,24.00
2019-02-17T16:42:53.341Z,23.90
2019-02-17T16:45:22.890Z,29.37
2019-02-17T16:47:52.398Z,28.50
2019-02-17T16:50:29.250Z,25.20
2019-02-17T16:52:58.743Z,23.90
2019-02-17T16:55:28.278Z,22.90
2019-02-17T16:57:57.799Z,23.53
2019-02-17T17:00:27.315Z,21.30
2019-02-17T17:02:57.688Z,18.83
2019-02-17T17:05:27.209Z,22.90
2019-02-17T17:07:56.756Z,19.70
2019-02-17T17:10:26.294Z,19.40
2019-02-17T17:12:55.908Z,18.73
2019-02-17T17:15:25.478Z,16.97
2019-02-17T17:17:55.015Z,17.73
2019-02-17T17:20:24.591Z,22.80
2019-02-17T17:22:54.107Z,20.07
2019-02-17T17:25:23.870Z,19.50
2019-02-17T17:27:53.379Z,21.33
2019-02-17T17:30:22.917Z,19.20
2019-02-17T17:32:52.453Z,19.53
2019-02-17T17:35:21.986Z,17.63
2019-02-17T17:37:51.501Z,18.00
2019-02-17T17:40:21.033Z,18.43
2019-02-17T17:42:50.548Z,16.70
2019-02-17T17:45:23.385Z,19.20
2019-02-17T17:47:52.882Z,17.20
2019-02-17T17:50:22.401Z,17.50
2019-02-17T17:52:50.624Z,18.20
2019-02-17T17:55:20.146Z,17.50
2019-02-17T17:57:49.678Z,17.80
2019-02-17T18:00:23.878Z,17.57
2019-02-17T18:02:53.395Z,16.27
2019-02-17T18:05:22.904Z,15.50
2019-02-17T18:07:52.407Z,17.37
2019-02-17T18:10:21.934Z,16.80
2019-02-17T18:12:51.588Z,17.70
2019-02-17T18:15:21.587Z,15.90
2019-02-17T18:17:54.604Z,15.53
2019-02-17T18:20:22.439Z,17.50
2019-02-17T18:22:51.960Z,17.20
2019-02-17T18:25:21.559Z,16.47
2019-02-17T18:27:51.083Z,16.50
2019-02-17T18:30:21.326Z,17.60
2019-02-17T18:32:50.864Z,17.40
2019-02-17T18:35:20.852Z,17.77
2019-02-17T18:37:50.464Z,15.87
2019-02-17T18:40:20.831Z,17.77
2019-02-17T18:42:50.347Z,15.60
2019-02-17T18:45:19.866Z,16.50
2019-02-17T18:47:49.396Z,17.97
2019-02-17T18:50:19.845Z,18.47
2019-02-17T18:52:49.365Z,17.30
2019-02-17T18:55:18.896Z,18.00
2019-02-17T18:57:50.854Z,18.80
2019-02-17T19:00:23.327Z,19.00
2019-02-17T19:02:52.826Z,19.87
2019-02-17T19:05:31.478Z,19.77
2019-02-17T19:07:53.604Z,19.60
2019-02-17T19:10:23.275Z,19.63
2019-02-17T19:12:52.811Z,18.30
2019-02-17T19:15:25.103Z,18.43
2019-02-17T19:17:54.629Z,17.70
2019-02-17T19:20:30.897Z,17.03
2019-02-17T19:23:00.410Z,18.07
2019-02-17T19:25:29.984Z,15.67
2019-02-17T19:27:59.707Z,18.37
2019-02-17T19:30:29.218Z,18.87
2019-02-17T19:32:58.733Z,19.00
2019-02-17T19:35:28.327Z,18.40
2019-02-17T19:37:57.841Z,18.10
2019-02-17T19:40:27.384Z,19.17
2019-02-17T19:42:56.891Z,18.00
2019-02-17T19:45:26.450Z,19.83
2019-02-17T19:47:55.976Z,18.83
2019-02-17T19:50:25.509Z,19.30
2019-02-17T19:52:55.021Z,18.40
2019-02-17T19:55:24.531Z,17.57
2019-02-17T19:57:54.094Z,19.80
2019-02-17T20:00:23.867Z,19.10
2019-02-17T20:03:10.100Z,18.77
2019-02-17T20:05:51.962Z,19.03
2019-02-17T20:08:18.823Z,19.70
2019-02-17T20:10:48.337Z,20.10
2019-02-17T20:13:18.199Z,19.90
2019-02-17T20:15:47.722Z,18.83
2019-02-17T20:18:17.237Z,19.90
2019-02-17T20:20:46.760Z,19.40
2019-02-17T20:23:16.276Z,19.67
2019-02-17T20:25:45.787Z,21.80
2019-02-17T20:28:15.301Z,18.80
2019-02-17T20:30:44.814Z,19.50
2019-02-17T20:33:14.426Z,19.27
2019-02-17T20:35:44.107Z,19.60
2019-02-17T20:38:13.657Z,20.00
2019-02-17T20:40:43.161Z,19.10
2019-02-17T20:43:12.680Z,21.90
2019-02-17T20:45:42.211Z,20.90
2019-02-17T20:48:12.395Z,17.77
2019-02-17T20:50:42.460Z,19.10
2019-02-17T20:53:11.973Z,20.50
2019-02-17T20:55:41.468Z,22.67
2019-02-17T20:58:11.113Z,20.93
2019-02-17T21:00:40.592Z,22.40
2019-02-17T21:03:10.122Z,19.90
2019-02-17T21:05:39.692Z,19.80
2019-02-17T21:08:09.404Z,18.53
2019-02-17T21:10:38.985Z,19.13
2019-02-17T21:13:08.586Z,19.93
2019-02-17T21:15:38.083Z,19.60
2019-02-17T21:18:07.601Z,18.90
2019-02-17T21:20:38.081Z,21.00
2019-02-17T21:23:07.593Z,18.70
2019-02-17T21:25:37.100Z,19.00
2019-02-17T21:28:06.610Z,20.03
2019-02-17T21:30:36.193Z,19.90
2019-02-17T21:33:05.745Z,20.07
2019-02-17T21:35:35.247Z,19.97
2019-02-17T21:38:04.844Z,19.67
2019-02-17T21:40:34.356Z,19.47
2019-02-17T21:43:03.884Z,20.60
2019-02-17T21:45:33.395Z,20.20
2019-02-17T21:48:02.922Z,20.70
2019-02-17T21:50:32.439Z,20.50
2019-02-17T21:53:01.936Z,20.97
2019-02-17T21:55:31.447Z,20.63
2019-02-17T21:58:01.012Z,20.87
2019-02-17T22:00:30.536Z,19.37
2019-02-17T22:03:00.129Z,19.90
2019-02-17T22:05:29.632Z,19.20
2019-02-17T22:07:59.611Z,20.20
2019-02-17T22:10:29.120Z,20.70
2019-02-17T22:12:58.625Z,19.23
2019-02-17T22:15:28.145Z,19.20
2019-02-17T22:17:57.656Z,19.70
2019-02-17T22:20:27.204Z,20.60
2019-02-17T22:22:56.711Z,18.67
2019-02-17T22:25:26.242Z,20.30
2019-02-17T22:27:56.122Z,18.27
2019-02-17T22:30:25.628Z,19.60
2019-02-17T22:32:55.152Z,19.63
2019-02-17T22:35:24.661Z,19.83
2019-02-17T22:37:54.165Z,20.17
2019-02-17T22:40:23.765Z,19.80
2019-02-17T22:42:53.269Z,21.07
2019-02-17T22:45:22.814Z,19.97
2019-02-17T22:47:52.321Z,19.90
2019-02-17T22:50:21.839Z,19.57
2019-02-17T22:52:51.376Z,21.27
2019-02-17T22:55:20.883Z,20.37
2019-02-17T22:57:50.517Z,21.30
2019-02-17T23:00:58.381Z,19.13
2019-02-17T23:03:29.820Z,24.07
2019-02-17T23:05:59.602Z,20.03
2019-02-17T23:08:29.300Z,20.37
2019-02-17T23:10:58.754Z,19.23
2019-02-17T23:13:28.347Z,19.67
2019-02-17T23:15:57.864Z,19.10
2019-02-17T23:18:27.392Z,20.60
2019-02-17T23:20:57.209Z,19.30
2019-02-17T23:23:26.756Z,20.57
2019-02-17T23:25:56.255Z,19.97
2019-02-17T23:28:26.082Z,18.17
2019-02-17T23:30:55.890Z,18.70
2019-02-17T23:33:25.886Z,20.00
2019-02-17T23:35:55.408Z,20.87
2019-02-17T23:38:25.183Z,21.50
2019-02-17T23:40:54.706Z,19.20
2019-02-17T23:43:24.213Z,18.40
2019-02-17T23:45:54.104Z,20.40
2019-02-17T23:48:23.607Z,20.07
2019-02-17T23:50:53.406Z,19.57
2019-02-17T23:53:22.940Z,19.90
2019-02-17T23:55:52.446Z,19.63
2019-02-17T23:58:22.275Z,20.17
